Thunder radar more information blitzortung!


avis per Snow/Ice more information rain snow radar


Visita la nostra xarxa de llocs de meteo:

Template documentation
and downloads

And another site



Snow/Ice From: 26-02-2018 12:00 Until: 27-02-2018 05:59 warning for: Snow/Ice Level: Yellow info button

Pagina Historial Weather Underground text

Diari Resum January 20, 2018 Unitats:  Imperial    Mètric   Tant
« Previous Dia
SegĂźent Dia »
Diari Setmana Mensual Anual Personalitzada
  Maxima: Minima: Media:
Temperatura: TemperatureC °F 4.1 °F 11.9 °F
Punt de rosada: DewpointC °F -0.6 °F 3 °F
Humitat: Humidity % 45 % 55 %
Wind Speed: WindSpeedKMH mph 0.0 mph 6.2 mph
RĂ fegues de vent: WindSpeedGustKMH mph - -
Vent:- - SW
Pression baro: PressurehPa in 1015.8 in -
Precipitacions: 0.0 in    
Historical Graphs
 
 
Dades de taula per January 20, 2018
Temps Temperatura Punt de rosada Pression baro Vent Wind Speed RĂ fegues de vent Humitat Rainfall Rate (Hourly)
TemperatureC °F DewpointC °F PressurehPa in Calm     Humidity % HourlyPrecipMM in
00:00 4.5 °F -0.3 °F 1020.9 in Calm   4.8 mph 71 % 0.0 in
00:04 6.7 °F 1.8 °F 1019.9 in WSW 3.7 mph 3.7 mph 71 % 0.0 in
00:09 6.8 °F 1.9 °F 1019.9 in WSW 1.9 mph   71 % 0.0 in
00:10 4.4 °F -0.4 °F 1020.9 in NNE 1.6 mph 3.2 mph 71 % 0.0 in
00:14 6.9 °F 2.0 °F 1019.9 in Calm     71 % 0.0 in
00:20 4.2 °F -0.6 °F 1021.9 in WNW 1.6 mph 1.6 mph 71 % 0.0 in
00:30 4.2 °F -0.6 °F 1021.9 in WNW 3.2 mph 3.2 mph 71 % 0.0 in
00:40 4.4 °F -0.2 °F 1021.9 in NNE 4.8 mph 6.4 mph 72 % 0.0 in
00:50 4.3 °F -0.3 °F 1020.9 in NE 4.8 mph 8.0 mph 72 % 0.0 in
01:00 4.2 °F -0.4 °F 1020.9 in NNE 3.2 mph 6.4 mph 72 % 0.0 in
01:10 4.1 °F -0.5 °F 1020.9 in North 1.6 mph 3.2 mph 72 % 0.0 in
01:20 4.1 °F -0.5 °F 1020.9 in NNW 1.6 mph 3.2 mph 72 % 0.0 in
01:30 4.1 °F -0.3 °F 1020.9 in North 1.6 mph 4.8 mph 73 % 0.0 in
01:40 4.2 °F -0.2 °F 1021.9 in NNW 1.6 mph 3.2 mph 73 % 0.0 in
01:50 4.3 °F -0.1 °F 1020.9 in NNE 1.6 mph 4.8 mph 73 % 0.0 in
02:00 4.2 °F -0.2 °F 1020.9 in NNE 1.6 mph 4.8 mph 73 % 0.0 in
02:10 4.1 °F -0.3 °F 1021.9 in North 1.6 mph 4.8 mph 73 % 0.0 in
02:20 4.1 °F -0.3 °F 1021.9 in NNE 3.2 mph 4.8 mph 73 % 0.0 in
02:30 4.1 °F -0.3 °F 1021.9 in NNE 3.2 mph 6.4 mph 73 % 0.0 in
02:40 4.3 °F -0.1 °F 1021.9 in NNE 1.6 mph 3.2 mph 73 % 0.0 in
03:00 5.3 °F 0.8 °F 1021.9 in North 1.6 mph 4.8 mph 73 % 0.0 in
03:10 5.6 °F 0.9 °F 1021.9 in NE 3.2 mph 4.8 mph 72 % 0.0 in
03:20 5.8 °F 0.9 °F 1021.9 in NE 4.8 mph 6.4 mph 71 % 0.0 in
03:30 6.2 °F 1.3 °F 1021.9 in NNE 3.2 mph 3.2 mph 71 % 0.0 in
03:40 6.8 °F 1.9 °F 1021.9 in Calm   3.2 mph 71 % 0.0 in
03:50 7.2 °F 2.1 °F 1021.9 in Calm   3.2 mph 70 % 0.0 in
04:00 7.2 °F 1.9 °F 1021.9 in North 1.6 mph 4.8 mph 69 % 0.0 in
04:10 6.7 °F 1.2 °F 1021.9 in NE 9.7 mph 9.7 mph 68 % 0.0 in
04:20 7.0 °F 1.5 °F 1021.9 in NE 4.8 mph 6.4 mph 68 % 0.0 in
04:30 7.6 °F 2.1 °F 1021.9 in NE 4.8 mph 6.4 mph 68 % 0.0 in
04:40 8.1 °F 2.3 °F 1021.9 in NNE 1.6 mph 6.4 mph 67 % 0.0 in
04:50 8.6 °F 2.8 °F 1021.9 in NNE 1.6 mph 4.8 mph 67 % 0.0 in
05:00 8.5 °F 2.5 °F 1021.9 in NE 3.2 mph 6.4 mph 66 % 0.0 in
05:10 9.4 °F 3.4 °F 1021.9 in NE 4.8 mph 4.8 mph 66 % 0.0 in
05:20 9.5 °F 3.2 °F 1021.9 in NE 1.6 mph 4.8 mph 65 % 0.0 in
05:30 10.2 °F 3.9 °F 1021.9 in ENE 3.2 mph 4.8 mph 65 % 0.0 in
05:40 11.2 °F 4.6 °F 1021.9 in WSW 3.2 mph 6.4 mph 64 % 0.0 in
05:50 11.6 °F 4.8 °F 1020.9 in WSW 4.8 mph 9.7 mph 63 % 0.0 in
06:00 11.9 °F 4.6 °F 1020.9 in West 3.2 mph 6.4 mph 61 % 0.0 in
06:10 12.4 °F 4.8 °F 1019.9 in WNW 1.6 mph 4.8 mph 60 % 0.0 in
06:20 12.8 °F 5.0 °F 1019.9 in WNW 1.6 mph 3.2 mph 59 % 0.0 in
06:30 12.9 °F 4.8 °F 1019.9 in West 8.0 mph 8.0 mph 58 % 0.0 in
06:40 13.4 °F 5.1 °F 1019.9 in West 1.6 mph 4.8 mph 57 % 0.0 in
06:50 13.4 °F 4.6 °F 1018.8 in WSW 9.7 mph 16.1 mph 55 % 0.0 in
07:00 13.8 °F 4.7 °F 1018.8 in WSW 1.6 mph 9.7 mph 54 % 0.0 in
07:10 14.1 °F 4.9 °F 1019.9 in WSW 4.8 mph 8.0 mph 54 % 0.0 in
07:20 14.3 °F 4.8 °F 1018.8 in West 4.8 mph 12.9 mph 53 % 0.0 in
07:30 14.4 °F 4.7 °F 1018.8 in West 9.7 mph 9.7 mph 52 % 0.0 in
13:32 14.3 °F 4.6 °F 1018.8 in WNW 11.1 mph 11.1 mph 52 % 0.0 in
13:37 14.1 °F 4.1 °F 1018.8 in SW 14.8 mph 14.8 mph 51 % 0.0 in
13:42 14.3 °F 4.3 °F 1018.8 in WSW 8.7 mph 8.7 mph 51 % 0.0 in
13:47 14.5 °F 4.5 °F 1017.8 in SW 6.1 mph 6.1 mph 51 % 0.0 in
13:52 14.2 °F 4.2 °F 1017.8 in WNW 20.4 mph 20.4 mph 51 % 0.0 in
13:57 14.1 °F 4.1 °F 1017.8 in WSW 9.3 mph 9.3 mph 51 % 0.0 in
14:02 14.0 °F 4.0 °F 1017.8 in SW 14.8 mph 14.8 mph 51 % 0.0 in
14:07 14.2 °F 4.2 °F 1017.8 in WSW 13.0 mph 13.0 mph 51 % 0.0 in
14:12 14.3 °F 4.3 °F 1017.8 in WNW 9.7 mph 9.7 mph 51 % 0.0 in
14:17 14.2 °F 4.2 °F 1017.8 in West 9.3 mph 9.3 mph 51 % 0.0 in
14:22 14.5 °F 4.5 °F 1017.8 in North 5.6 mph 5.6 mph 51 % 0.0 in
14:27 14.4 °F 4.1 °F 1017.8 in ENE 11.1 mph 11.1 mph 50 % 0.0 in
14:32 14.2 °F 3.9 °F 1017.8 in WSW 11.1 mph 11.1 mph 50 % 0.0 in
14:37 14.3 °F 4.0 °F 1017.8 in SW 9.3 mph 9.3 mph 50 % 0.0 in
14:42 14.3 °F 4.0 °F 1017.8 in WSW 11.1 mph 11.1 mph 50 % 0.0 in
14:47 14.4 °F 4.1 °F 1017.8 in ENE 9.3 mph 9.3 mph 50 % 0.0 in
14:52 14.6 °F 4.3 °F 1017.8 in NW 5.6 mph 5.6 mph 50 % 0.0 in
14:57 14.6 °F 4.0 °F 1017.8 in WSW 14.8 mph 14.8 mph 49 % 0.0 in
15:02 14.7 °F 4.1 °F 1017.8 in NNW 9.3 mph 9.3 mph 49 % 0.0 in
15:07 14.8 °F 4.2 °F 1017.8 in WNW 13.0 mph 13.0 mph 49 % 0.0 in
15:12 14.9 °F 4.0 °F 1017.8 in West 15.8 mph 15.8 mph 48 % 0.0 in
15:17 15.0 °F 4.1 °F 1017.8 in WSW 9.3 mph 9.3 mph 48 % 0.0 in
15:22 15.4 °F 4.4 °F 1017.8 in West 5.8 mph 5.8 mph 48 % 0.0 in
15:27 15.5 °F 4.5 °F 1017.8 in NW 14.0 mph 14.0 mph 48 % 0.0 in
15:32 15.6 °F 4.6 °F 1017.8 in NW 7.4 mph 7.4 mph 48 % 0.0 in
15:33 15.7 °F 4.7 °F 1017.8 in WSW 9.3 mph 9.3 mph 48 % 0.0 in
15:38 15.4 °F 4.1 °F 1017.8 in WSW 24.5 mph 24.5 mph 47 % 0.0 in
15:43 15.5 °F 3.9 °F 1017.8 in WNW 11.1 mph 11.1 mph 46 % 0.0 in
15:48 15.8 °F 4.5 °F 1017.8 in WSW 9.5 mph 9.5 mph 47 % 0.0 in
15:53 15.6 °F 4.0 °F 1017.8 in SW 9.3 mph 9.3 mph 46 % 0.0 in
15:58 15.7 °F 4.1 °F 1017.8 in ESE 5.6 mph 5.6 mph 46 % 0.0 in
16:03 15.8 °F 4.2 °F 1017.8 in West 13.0 mph 13.0 mph 46 % 0.0 in
16:08 15.6 °F 3.7 °F 1017.8 in WNW 13.0 mph 13.0 mph 45 % 0.0 in
16:13 15.5 °F 3.6 °F 1017.8 in WSW 11.1 mph 11.1 mph 45 % 0.0 in
16:18 15.5 °F 3.6 °F 1017.8 in WSW 9.3 mph 9.3 mph 45 % 0.0 in
16:23 15.6 °F 3.7 °F 1017.8 in SSW 4.7 mph 4.7 mph 45 % 0.0 in
16:28 15.6 °F 3.7 °F 1017.8 in SW 5.6 mph 5.6 mph 45 % 0.0 in
16:33 15.2 °F 3.3 °F 1016.8 in SW 7.4 mph 7.4 mph 45 % 0.0 in
16:38 15.0 °F 3.2 °F 1016.8 in West 5.6 mph 5.6 mph 45 % 0.0 in
16:43 15.2 °F 3.3 °F 1016.8 in SSW 5.6 mph 5.6 mph 45 % 0.0 in
16:48 15.4 °F 3.5 °F 1017.8 in WSW 5.6 mph 5.6 mph 45 % 0.0 in
16:53 15.2 °F 3.3 °F 1017.8 in NW 3.7 mph 3.7 mph 45 % 0.0 in
16:58 15.0 °F 3.2 °F 1017.8 in SSE 7.4 mph 7.4 mph 45 % 0.0 in
17:03 15.2 °F 3.3 °F 1017.8 in SSE 1.9 mph   45 % 0.0 in
17:08 15.3 °F 3.4 °F 1017.8 in NW 5.6 mph 5.6 mph 45 % 0.0 in
17:13 15.2 °F 3.3 °F 1017.8 in West 3.7 mph 3.7 mph 45 % 0.0 in
17:18 15.1 °F 3.2 °F 1016.8 in WSW 9.3 mph 9.3 mph 45 % 0.0 in
17:23 15.1 °F 3.2 °F 1016.8 in SW 5.6 mph 5.6 mph 45 % 0.0 in
17:28 15.0 °F 3.2 °F 1016.8 in SSW 7.4 mph 7.4 mph 45 % 0.0 in
17:33 14.9 °F 3.1 °F 1016.8 in West 3.7 mph 3.7 mph 45 % 0.0 in
17:38 14.7 °F 2.9 °F 1016.8 in SSW 7.4 mph 7.4 mph 45 % 0.0 in
17:43 14.6 °F 2.8 °F 1016.8 in NW 5.6 mph 5.6 mph 45 % 0.0 in
17:48 14.4 °F 2.6 °F 1017.8 in WSW 5.6 mph 5.6 mph 45 % 0.0 in
17:53 14.2 °F 2.4 °F 1017.8 in West 4.2 mph 4.2 mph 45 % 0.0 in
17:58 14.1 °F 2.3 °F 1017.8 in SW 3.7 mph 3.7 mph 45 % 0.0 in
18:03 14.0 °F 2.2 °F 1016.8 in WSW 8.7 mph 8.7 mph 45 % 0.0 in
18:08 14.0 °F 2.2 °F 1016.8 in SW 5.6 mph 5.6 mph 45 % 0.0 in
18:13 13.8 °F 2.1 °F 1016.8 in WSW 5.6 mph 5.6 mph 45 % 0.0 in
18:18 13.6 °F 1.9 °F 1016.8 in WSW 4.2 mph 4.2 mph 45 % 0.0 in
18:23 13.5 °F 1.8 °F 1016.8 in WSW 5.0 mph 5.0 mph 45 % 0.0 in
18:28 13.6 °F 2.2 °F 1016.8 in WNW 6.1 mph 6.1 mph 46 % 0.0 in
18:33 13.5 °F 2.1 °F 1016.8 in WSW 5.6 mph 5.6 mph 46 % 0.0 in
18:38 13.4 °F 2.0 °F 1016.8 in SW 7.4 mph 7.4 mph 46 % 0.0 in
18:43 13.4 °F 2.0 °F 1016.8 in WSW 5.6 mph 6.9 mph 46 % 0.0 in
18:48 13.3 °F 1.9 °F 1016.8 in WSW 4.7 mph 4.7 mph 46 % 0.0 in
18:53 13.1 °F 1.7 °F 1016.8 in SW 3.9 mph 3.9 mph 46 % 0.0 in
18:58 13.1 °F 1.7 °F 1016.8 in WSW 7.4 mph 7.4 mph 46 % 0.0 in
19:03 13.0 °F 1.9 °F 1015.8 in WSW 5.6 mph 5.6 mph 47 % 0.0 in
19:08 12.9 °F 1.8 °F 1015.8 in West 3.9 mph 3.9 mph 47 % 0.0 in
19:13 12.8 °F 1.8 °F 1015.8 in WSW 5.6 mph 5.6 mph 47 % 0.0 in
19:18 12.7 °F 1.7 °F 1015.8 in SW 5.6 mph 5.6 mph 47 % 0.0 in
19:23 12.6 °F 1.9 °F 1015.8 in West 5.6 mph 5.6 mph 48 % 0.0 in
19:28 12.5 °F 1.8 °F 1015.8 in WSW 5.6 mph 5.6 mph 48 % 0.0 in
19:33 12.5 °F 1.8 °F 1016.8 in WSW 5.0 mph 5.0 mph 48 % 0.0 in
19:38 12.4 °F 1.9 °F 1016.8 in SW 5.0 mph 5.0 mph 49 % 0.0 in
19:43 12.5 °F 2.1 °F 1016.8 in SW 9.3 mph 9.3 mph 49 % 0.0 in
19:48 12.5 °F 2.3 °F 1016.8 in West 5.6 mph 5.6 mph 50 % 0.0 in
19:53 12.4 °F 2.3 °F 1016.8 in West 5.6 mph 5.6 mph 50 % 0.0 in
19:58 12.5 °F 2.3 °F 1016.8 in West 5.6 mph 5.6 mph 50 % 0.0 in
20:03 12.5 °F 2.3 °F 1016.8 in West 5.6 mph 5.6 mph 50 % 0.0 in
20:08 12.5 °F 2.6 °F 1016.8 in West 5.6 mph 5.6 mph 51 % 0.0 in
20:13 12.5 °F 2.6 °F 1016.8 in WSW 5.6 mph 5.6 mph 51 % 0.0 in
20:18 12.6 °F 2.7 °F 1016.8 in West 9.3 mph 9.3 mph 51 % 0.0 in
20:23 12.7 °F 3.1 °F 1016.8 in WSW 9.0 mph 9.0 mph 52 % 0.0 in
20:28 12.7 °F 3.1 °F 1016.8 in WSW 9.3 mph 9.3 mph 52 % 0.0 in
20:33 12.8 °F 3.2 °F 1015.8 in West 3.7 mph 4.2 mph 52 % 0.0 in
20:38 12.7 °F 3.1 °F 1015.8 in WSW 3.9 mph 3.9 mph 52 % 0.0 in
20:43 12.7 °F 3.1 °F 1015.8 in West 5.6 mph 5.6 mph 52 % 0.0 in
20:48 12.8 °F 3.4 °F 1016.8 in WSW 9.3 mph 9.3 mph 53 % 0.0 in
20:53 12.7 °F 3.3 °F 1016.8 in WSW 3.7 mph 3.7 mph 53 % 0.0 in
20:58 12.6 °F 3.3 °F 1016.8 in SW 3.7 mph 3.7 mph 53 % 0.0 in
21:03 12.6 °F 3.3 °F 1015.8 in WSW 9.3 mph 9.3 mph 53 % 0.0 in
21:08 12.6 °F 3.3 °F 1015.8 in WNW 5.6 mph 5.6 mph 53 % 0.0 in
21:13 12.5 °F 3.4 °F 1015.8 in SSW 3.7 mph 3.7 mph 54 % 0.0 in
21:18 12.6 °F 3.6 °F 1015.8 in South 3.7 mph 3.7 mph 54 % 0.0 in
21:23 12.5 °F 3.4 °F 1015.8 in NW 3.7 mph 3.7 mph 54 % 0.0 in
21:28 12.5 °F 3.4 °F 1015.8 in WSW 3.7 mph 3.7 mph 54 % 0.0 in
21:33 12.6 °F 3.6 °F 1015.8 in WSW 5.6 mph 5.6 mph 54 % 0.0 in
21:38 12.7 °F 3.6 °F 1015.8 in West 4.7 mph 4.7 mph 54 % 0.0 in
21:43 12.7 °F 3.6 °F 1015.8 in WSW 3.7 mph 3.7 mph 54 % 0.0 in
21:48 12.7 °F 3.6 °F 1016.8 in WNW 11.1 mph 11.1 mph 54 % 0.0 in
21:53 12.7 °F 3.6 °F 1016.8 in West 7.4 mph 7.4 mph 54 % 0.0 in
21:58 12.7 °F 3.9 °F 1016.8 in WSW 5.0 mph 5.0 mph 55 % 0.0 in
22:03 12.7 °F 3.9 °F 1015.8 in West 5.6 mph 5.6 mph 55 % 0.0 in
22:08 12.6 °F 3.8 °F 1015.8 in WNW 3.7 mph 3.7 mph 55 % 0.0 in
22:13 12.6 °F 3.8 °F 1015.8 in West 9.3 mph 9.3 mph 55 % 0.0 in
22:18 12.5 °F 3.7 °F 1015.8 in West 5.6 mph 5.6 mph 55 % 0.0 in
22:23 12.4 °F 3.8 °F 1015.8 in WNW 5.6 mph 5.6 mph 56 % 0.0 in
22:28 12.4 °F 3.8 °F 1015.8 in WSW 5.6 mph 5.6 mph 56 % 0.0 in
22:33 12.3 °F 3.8 °F 1016.8 in WSW 7.4 mph 7.4 mph 56 % 0.0 in
22:38 12.4 °F 3.8 °F 1016.8 in WSW 7.4 mph 7.4 mph 56 % 0.0 in
22:43 12.3 °F 4.0 °F 1016.8 in WSW 9.7 mph 9.7 mph 57 % 0.0 in
22:48 12.4 °F 4.1 °F 1015.8 in WSW 9.5 mph 9.5 mph 57 % 0.0 in
22:53 12.4 °F 4.3 °F 1015.8 in West 9.3 mph 9.3 mph 58 % 0.0 in
22:58 12.3 °F 4.3 °F 1015.8 in WNW 9.3 mph 9.3 mph 58 % 0.0 in
23:03 12.4 °F 4.6 °F 1016.8 in NNW 18.3 mph 18.3 mph 59 % 0.0 in
23:08 12.4 °F 4.6 °F 1016.8 in NNW 7.4 mph 7.4 mph 59 % 0.0 in
23:13 12.4 °F 4.6 °F 1016.8 in WSW 9.3 mph 9.3 mph 59 % 0.0 in
23:18 12.3 °F 4.8 °F 1016.8 in SSW 3.7 mph 3.7 mph 60 % 0.0 in
23:23 12.3 °F 4.8 °F 1016.8 in WSW 13.0 mph 13.0 mph 60 % 0.0 in
23:28 12.3 °F 4.8 °F 1016.8 in NNW 5.6 mph 5.6 mph 60 % 0.0 in
23:33 12.3 °F 4.8 °F 1016.8 in West 3.7 mph 3.7 mph 60 % 0.0 in
23:38 12.2 °F 4.7 °F 1016.8 in South 7.4 mph 7.4 mph 60 % 0.0 in
23:43 12.2 °F 4.7 °F 1016.8 in West 3.7 mph 3.7 mph 60 % 0.0 in
23:48 12.1 °F 4.6 °F 1017.8 in WNW 5.6 mph 5.6 mph 60 % 0.0 in
23:53 12.1 °F 4.8 °F 1017.8 in West 3.7 mph 3.7 mph 61 % 0.0 in
23:58 12.1 °F 4.8 °F 1017.8 in WSW 5.6 mph 5.6 mph 61 % 0.0 in
Meteo Sesrovires
Elogis d' Weather Underground - 3.5 mb

Guio original per  Jim McMurry - jmcmurry@mwt.net Adaptat per a la plantilla per  Wim van der Kuil - Leuven-Template.eu

Trobareu la nostra informacio del temps tambe a:

Weather Underground

AWEKAS